PWSweather.com
Personal Weather Stations
Station Observations
COOKEVILLE
Bilbrey Park, Cookeville, TN 38501

Bilbrey ParkCookeville, TN 38501

Lat: 36.174708, Lon: -85.463771

Elevation: 1102

Station Type: Davis Vantage Vue

http://www.cookevilleweatherguy.com

Latest ConditionsUpdated 1:40:05 AM CDT Tuesday, Sep 2, 2014
Currently Today's Max Today's Min Today's Average
Temperature 73.4°F23.0°C 74.2°F23.4°C 73.4°F23.0°C 73.7°F23.2°C
Dew Point 70.3°F21.3°C 71.0°F21.7°C 70.3°F21.3°C 70.7°F21.5°C
Winds Calm Calm 2.0 mph SE3.2 kmh SE - 0.1 mph 0.2 kmh
Wind Gusts 1.0 mph1.6 kmh 4.0 mph6.4 kmh - -
Humidity 90% 91% 88% 90%
Pressure 29.97 in1014.9 mb 29.98 in1015.2 mb 29.97 in1014.9 mb -
Hour Temp Dew Point Humidity Winds Wind Gusts Pressure Precip Precip Rate Daily Precip Total
01:40 AM 73.4°F23.0°C 70.3°F21.3°C 90% Calm Calm 1.0 mph1.6 kmh 29.97 in1014.9 mb 0.00 in0.0 mm 0.00 in/hr0.0 mm/hr 0.00 in0.0 mm
01:35 AM 73.6°F23.1°C 70.5°F21.4°C 90% Calm Calm 1.0 mph1.6 kmh 29.97 in1014.9 mb 0.00 in0.0 mm 0.00 in/hr0.0 mm/hr 0.00 in0.0 mm
01:30 AM 73.8°F23.2°C 70.4°F21.3°C 89% Calm Calm -- 29.97 in1014.9 mb 0.00 in0.0 mm 0.00 in/hr0.0 mm/hr 0.00 in0.0 mm
01:25 AM 74.0°F23.3°C 70.6°F21.4°C 89% Calm Calm -- 29.98 in1015.2 mb 0.00 in0.0 mm 0.00 in/hr0.0 mm/hr 0.00 in0.0 mm
01:20 AM 74.2°F23.4°C 70.8°F21.6°C 89% Calm Calm 1.0 mph1.6 kmh 29.98 in1015.2 mb 0.00 in0.0 mm 0.00 in/hr0.0 mm/hr 0.00 in0.0 mm
01:15 AM 74.2°F23.4°C 70.4°F21.3°C 88% Calm Calm 1.0 mph1.6 kmh 29.98 in1015.2 mb 0.00 in0.0 mm 0.00 in/hr0.0 mm/hr 0.00 in0.0 mm
01:10 AM 74.2°F23.4°C 70.8°F21.6°C 89% Calm Calm 4.0 mph6.4 kmh 29.97 in1014.9 mb 0.00 in0.0 mm 0.00 in/hr0.0 mm/hr 0.00 in0.0 mm
01:05 AM 74.0°F23.3°C 70.9°F21.6°C 90% 2.0 mph SE3.2 kmh SE 4.0 mph6.4 kmh 29.97 in1014.9 mb 0.00 in0.0 mm 0.00 in/hr0.0 mm/hr 0.00 in0.0 mm
01:00 AM 73.7°F23.2°C 70.9°F21.6°C 91% Calm Calm 3.0 mph4.8 kmh 29.97 in1014.9 mb 0.00 in0.0 mm 0.00 in/hr0.0 mm/hr 0.00 in0.0 mm
12:55 AM 73.5°F23.1°C 70.7°F21.5°C 91% Calm Calm 1.0 mph1.6 kmh 29.97 in1014.9 mb 0.00 in0.0 mm 0.00 in/hr0.0 mm/hr 0.00 in0.0 mm
12:49 AM 73.4°F23.0°C 70.6°F21.4°C 91% Calm Calm 1.0 mph1.6 kmh 29.97 in1014.9 mb 0.00 in0.0 mm 0.00 in/hr0.0 mm/hr 0.00 in0.0 mm
12:45 AM 73.4°F23.0°C 70.6°F21.4°C 91% Calm Calm 1.0 mph1.6 kmh 29.98 in1015.2 mb 0.00 in0.0 mm 0.00 in/hr0.0 mm/hr 0.00 in0.0 mm
12:39 AM 73.4°F23.0°C 70.6°F21.4°C 91% Calm Calm -- 29.98 in1015.2 mb 0.00 in0.0 mm 0.00 in/hr0.0 mm/hr 0.00 in0.0 mm
12:35 AM 73.5°F23.1°C 70.7°F21.5°C 91% Calm Calm -- 29.98 in1015.2 mb 0.00 in0.0 mm 0.00 in/hr0.0 mm/hr 0.00 in0.0 mm
12:30 AM 73.5°F23.1°C 70.7°F21.5°C 91% Calm Calm -- 29.98 in1015.2 mb 0.00 in0.0 mm 0.00 in/hr0.0 mm/hr 0.00 in0.0 mm
12:24 AM 73.5°F23.1°C 70.7°F21.5°C 91% Calm Calm -- 29.98 in1015.2 mb 0.00 in0.0 mm 0.00 in/hr0.0 mm/hr 0.00 in0.0 mm
12:20 AM 73.5°F23.1°C 70.7°F21.5°C 91% Calm Calm 2.0 mph3.2 kmh 29.98 in1015.2 mb 0.00 in0.0 mm 0.00 in/hr0.0 mm/hr 0.00 in0.0 mm
12:15 AM 73.6°F23.1°C 70.8°F21.6°C 91% Calm Calm -- 29.98 in1015.2 mb 0.00 in0.0 mm 0.00 in/hr0.0 mm/hr 0.00 in0.0 mm
12:10 AM 73.8°F23.2°C 70.7°F21.5°C 90% Calm Calm -- 29.98 in1015.2 mb 0.00 in0.0 mm 0.00 in/hr0.0 mm/hr 0.00 in0.0 mm
12:05 AM 74.0°F23.3°C 70.9°F21.6°C 90% Calm Calm -- 29.98 in1015.2 mb 0.00 in0.0 mm 0.00 in/hr0.0 mm/hr 0.00 in0.0 mm
12:00 AM 74.1°F23.4°C 71.0°F21.7°C 90% 1.0 mph SE1.6 kmh SE 1.0 mph1.6 kmh 29.98 in1015.2 mb 0.00 in0.0 mm 0.00 in/hr0.0 mm/hr 0.00 in0.0 mm